createdAt,value
2018-08-25T00:00:57.131Z,999.60
2018-08-25T00:01:57.123Z,999.57
2018-08-25T00:02:57.121Z,999.54
2018-08-25T00:03:57.121Z,999.55
2018-08-25T00:04:57.120Z,999.54
2018-08-25T00:05:57.121Z,999.52
2018-08-25T00:06:57.118Z,999.50
2018-08-25T00:07:57.118Z,999.49
2018-08-25T00:08:57.117Z,999.49
2018-08-25T00:09:57.118Z,999.53
2018-08-25T00:10:57.116Z,999.50
2018-08-25T00:11:57.114Z,999.49
2018-08-25T00:12:57.115Z,999.46
2018-08-25T00:13:57.114Z,999.45
2018-08-25T00:14:57.111Z,999.45
2018-08-25T00:15:57.110Z,999.40
2018-08-25T00:16:57.111Z,999.42
2018-08-25T00:17:57.110Z,999.40
2018-08-25T00:18:57.107Z,999.39
2018-08-25T00:19:57.112Z,999.39
2018-08-25T00:20:57.108Z,999.36
2018-08-25T00:21:57.107Z,999.32
2018-08-25T00:22:57.108Z,999.29
2018-08-25T00:23:57.103Z,999.27
2018-08-25T00:24:57.104Z,999.23
2018-08-25T00:25:57.102Z,999.22
2018-08-25T00:26:57.107Z,999.24
2018-08-25T00:27:57.100Z,999.27
2018-08-25T00:28:57.098Z,999.24
2018-08-25T00:29:57.099Z,999.23
2018-08-25T00:30:57.098Z,999.20
2018-08-25T00:31:57.096Z,999.23
2018-08-25T00:32:57.094Z,999.23
2018-08-25T00:33:57.095Z,999.20
2018-08-25T00:34:57.093Z,999.22
2018-08-25T00:35:57.092Z,999.16
2018-08-25T00:36:57.091Z,999.15
2018-08-25T00:37:57.092Z,999.15
2018-08-25T00:38:57.088Z,999.14
2018-08-25T00:39:57.088Z,999.13
2018-08-25T00:40:57.087Z,999.11
2018-08-25T00:41:57.087Z,999.15
2018-08-25T00:42:57.087Z,999.12
2018-08-25T00:43:57.084Z,999.10
2018-08-25T00:44:57.084Z,999.07
2018-08-25T00:45:57.082Z,999.09
2018-08-25T00:46:57.082Z,999.07
2018-08-25T00:47:57.086Z,999.04
2018-08-25T00:48:57.079Z,999.01
2018-08-25T00:49:57.078Z,999.00
2018-08-25T00:50:57.075Z,998.98
2018-08-25T00:51:57.074Z,998.97
2018-08-25T00:52:57.078Z,998.97
2018-08-25T00:53:57.071Z,999.00
2018-08-25T00:54:57.070Z,998.98
2018-08-25T00:55:57.071Z,999.00
2018-08-25T00:56:57.070Z,998.97
2018-08-25T00:57:57.069Z,998.95
2018-08-25T00:58:57.069Z,998.89
2018-08-25T00:59:57.065Z,998.90
2018-08-25T01:00:57.065Z,998.90
2018-08-25T01:01:57.065Z,998.93
2018-08-25T01:02:57.061Z,998.92
2018-08-25T01:03:57.061Z,998.92
2018-08-25T01:04:57.061Z,998.91
2018-08-25T01:05:57.059Z,998.87
2018-08-25T01:06:57.057Z,998.90
2018-08-25T01:07:57.057Z,998.90
2018-08-25T01:08:57.058Z,998.85
2018-08-25T01:09:57.055Z,998.82
2018-08-25T01:10:57.055Z,998.82
2018-08-25T01:11:57.052Z,998.84
2018-08-25T01:12:57.053Z,998.81
2018-08-25T01:13:57.050Z,998.77
2018-08-25T01:14:57.049Z,998.78
2018-08-25T01:15:57.048Z,998.73
2018-08-25T01:16:57.047Z,998.76
2018-08-25T01:17:57.045Z,998.71
2018-08-25T01:18:57.047Z,998.74
2018-08-25T01:19:57.043Z,998.70
2018-08-25T01:20:57.043Z,998.71
2018-08-25T01:21:57.040Z,998.72
2018-08-25T01:22:57.038Z,998.66
2018-08-25T01:23:57.043Z,998.68
2018-08-25T01:24:57.037Z,998.68
2018-08-25T01:25:57.035Z,998.67
2018-08-25T01:26:57.032Z,998.66
2018-08-25T01:27:57.032Z,998.64
2018-08-25T01:28:57.033Z,998.61
2018-08-25T01:29:57.031Z,998.62
2018-08-25T01:30:57.028Z,998.64
2018-08-25T01:31:57.027Z,998.68
2018-08-25T01:32:57.026Z,998.65
2018-08-25T01:33:57.026Z,998.66
2018-08-25T01:34:59.645Z,998.66
2018-08-25T01:35:57.022Z,998.64
2018-08-25T01:36:57.021Z,998.62
2018-08-25T01:37:57.026Z,998.60
2018-08-25T01:38:57.028Z,998.62
2018-08-25T01:39:57.017Z,998.62
2018-08-25T01:40:57.017Z,998.56
2018-08-25T01:41:57.015Z,998.58
2018-08-25T01:42:57.012Z,998.60
2018-08-25T01:43:57.015Z,998.57
2018-08-25T01:44:57.014Z,998.56
2018-08-25T01:45:57.011Z,998.53
2018-08-25T01:46:57.007Z,998.51
2018-08-25T01:47:57.006Z,998.49
2018-08-25T01:48:57.006Z,998.48
2018-08-25T01:49:57.004Z,998.47
2018-08-25T01:50:57.003Z,998.46
2018-08-25T01:51:57.003Z,998.41
2018-08-25T01:52:56.999Z,998.45
2018-08-25T01:53:56.999Z,998.40
2018-08-25T01:54:56.998Z,998.37
2018-08-25T01:55:56.996Z,998.37
2018-08-25T01:56:56.997Z,998.38
2018-08-25T01:57:56.994Z,998.34
2018-08-25T01:58:56.993Z,998.37
2018-08-25T01:59:56.991Z,998.33
2018-08-25T02:00:56.992Z,998.32
2018-08-25T02:01:56.990Z,998.30
2018-08-25T02:02:56.992Z,998.26
2018-08-25T02:03:56.989Z,998.22
2018-08-25T02:04:56.986Z,998.22
2018-08-25T02:05:56.984Z,998.20
2018-08-25T02:06:56.983Z,998.18
2018-08-25T02:07:56.981Z,998.16
2018-08-25T02:08:56.980Z,998.16
2018-08-25T02:09:56.981Z,998.13
2018-08-25T02:10:56.979Z,998.13
2018-08-25T02:11:56.976Z,998.11
2018-08-25T02:12:56.978Z,998.09
2018-08-25T02:13:56.976Z,998.09
2018-08-25T02:14:56.973Z,998.06
2018-08-25T02:15:56.973Z,998.07
2018-08-25T02:16:56.971Z,998.01
2018-08-25T02:17:56.970Z,998.04
2018-08-25T02:18:56.968Z,998.01
2018-08-25T02:19:56.968Z,997.97
2018-08-25T02:20:56.966Z,998.00
2018-08-25T02:21:56.966Z,997.95
2018-08-25T02:22:56.966Z,997.96
2018-08-25T02:23:56.962Z,997.93
2018-08-25T02:24:56.961Z,997.90
2018-08-25T02:25:56.960Z,997.95
2018-08-25T02:26:56.958Z,997.88
2018-08-25T02:27:56.958Z,997.85
2018-08-25T02:28:56.960Z,997.86
2018-08-25T02:29:56.956Z,997.85
2018-08-25T02:30:56.953Z,997.86
2018-08-25T02:31:56.952Z,997.85
2018-08-25T02:32:56.951Z,997.85
2018-08-25T02:33:56.952Z,997.83
2018-08-25T02:34:56.953Z,997.80
2018-08-25T02:35:56.948Z,997.81
2018-08-25T02:36:56.948Z,997.75
2018-08-25T02:37:56.946Z,997.73
2018-08-25T02:38:56.945Z,997.74
2018-08-25T02:39:56.945Z,997.72
2018-08-25T02:40:56.943Z,997.73
2018-08-25T02:41:56.947Z,997.68
2018-08-25T02:42:56.940Z,997.68
2018-08-25T02:43:56.940Z,997.68
2018-08-25T02:44:56.938Z,997.70
2018-08-25T02:45:56.938Z,997.67
2018-08-25T02:46:56.936Z,997.72
2018-08-25T02:47:56.935Z,997.71
2018-08-25T02:48:56.936Z,997.76
2018-08-25T02:49:56.933Z,997.74
2018-08-25T02:50:56.931Z,997.74
2018-08-25T02:51:56.931Z,997.77
2018-08-25T02:52:56.936Z,997.80
2018-08-25T02:53:56.929Z,997.82
2018-08-25T02:54:56.927Z,997.78
2018-08-25T02:55:56.925Z,997.77
2018-08-25T02:56:56.924Z,997.77
2018-08-25T02:57:56.925Z,997.77
2018-08-25T02:58:56.922Z,997.82
2018-08-25T02:59:56.923Z,997.96
2018-08-25T03:00:56.922Z,997.79
2018-08-25T03:01:56.919Z,997.91
2018-08-25T03:02:56.918Z,997.96
2018-08-25T03:03:56.916Z,997.95
2018-08-25T03:04:56.928Z,998.01
2018-08-25T03:05:56.915Z,997.97
2018-08-25T03:06:56.913Z,997.92
2018-08-25T03:07:56.914Z,997.94
2018-08-25T03:08:56.910Z,997.95
2018-08-25T03:09:56.908Z,997.94
2018-08-25T03:10:56.906Z,997.91
2018-08-25T03:11:56.908Z,997.94
2018-08-25T03:12:56.905Z,997.87
2018-08-25T03:13:56.903Z,997.88
2018-08-25T03:14:56.900Z,997.93
2018-08-25T03:15:56.900Z,997.83
2018-08-25T03:16:56.898Z,997.86
2018-08-25T03:17:56.897Z,997.85
2018-08-25T03:18:56.894Z,997.84
2018-08-25T03:19:56.893Z,997.81
2018-08-25T03:20:56.890Z,997.78
2018-08-25T03:21:56.890Z,997.84
2018-08-25T03:22:56.886Z,997.80
2018-08-25T03:23:56.885Z,997.76
2018-08-25T03:24:56.883Z,997.79
2018-08-25T03:25:56.882Z,997.82
2018-08-25T03:26:56.878Z,997.76
2018-08-25T03:27:56.877Z,997.83
2018-08-25T03:28:56.875Z,997.73
2018-08-25T03:29:56.874Z,997.71
2018-08-25T03:30:56.884Z,997.70
2018-08-25T03:31:56.869Z,997.65
2018-08-25T03:32:56.870Z,997.63
2018-08-25T03:33:56.865Z,997.61
2018-08-25T03:34:56.861Z,997.59
2018-08-25T03:35:56.859Z,997.53
2018-08-25T03:36:56.858Z,997.55
2018-08-25T03:37:56.860Z,997.53
2018-08-25T03:38:56.852Z,997.54
2018-08-25T03:39:56.853Z,997.53
2018-08-25T03:40:56.853Z,997.51
2018-08-25T03:41:56.851Z,997.47
2018-08-25T03:42:56.844Z,997.45
2018-08-25T03:43:56.841Z,997.45
2018-08-25T03:44:56.840Z,997.42
2018-08-25T03:45:56.837Z,997.39
2018-08-25T03:46:56.834Z,997.41
2018-08-25T03:47:56.833Z,997.39
2018-08-25T03:48:56.833Z,997.40
2018-08-25T03:49:56.829Z,997.39
2018-08-25T03:50:56.825Z,997.34
2018-08-25T03:51:56.824Z,997.39
2018-08-25T03:52:56.822Z,997.41
2018-08-25T03:53:56.819Z,997.39
2018-08-25T03:54:56.814Z,997.40
2018-08-25T03:55:56.816Z,997.36
2018-08-25T03:56:56.813Z,997.33
2018-08-25T03:57:56.810Z,997.28
2018-08-25T03:58:56.806Z,997.18
2018-08-25T03:59:56.805Z,997.24
2018-08-25T04:00:56.805Z,997.19
2018-08-25T04:01:56.801Z,997.24
2018-08-25T04:02:56.798Z,997.19
2018-08-25T04:03:56.795Z,997.22
2018-08-25T04:04:56.794Z,997.19
2018-08-25T04:05:56.790Z,997.18
2018-08-25T04:06:56.795Z,997.16
2018-08-25T04:07:56.785Z,997.09
2018-08-25T04:08:56.783Z,997.08
2018-08-25T04:09:56.781Z,997.16
2018-08-25T04:10:56.778Z,997.11
2018-08-25T04:11:56.776Z,997.16
2018-08-25T04:12:56.775Z,997.20
2018-08-25T04:13:56.771Z,997.18
2018-08-25T04:14:56.884Z,997.22
2018-08-25T04:15:56.767Z,997.21
2018-08-25T04:16:56.765Z,997.21
2018-08-25T04:17:56.764Z,997.16
2018-08-25T04:18:56.760Z,997.18
2018-08-25T04:19:56.759Z,997.21
2018-08-25T04:20:56.755Z,997.21
2018-08-25T04:21:56.754Z,997.16
2018-08-25T04:22:56.751Z,997.19
2018-08-25T04:23:56.751Z,997.10
2018-08-25T04:24:56.745Z,997.08
2018-08-25T04:25:56.744Z,997.11
2018-08-25T04:26:56.741Z,997.06
2018-08-25T04:27:56.738Z,997.08
2018-08-25T04:28:56.737Z,997.08
2018-08-25T04:29:56.735Z,997.03
2018-08-25T04:30:56.731Z,997.01
2018-08-25T04:31:56.728Z,997.04
2018-08-25T04:32:56.728Z,997.09
2018-08-25T04:33:56.728Z,997.08
2018-08-25T04:34:56.723Z,997.16
2018-08-25T04:35:56.721Z,997.08
2018-08-25T04:36:56.718Z,997.13
2018-08-25T04:37:56.718Z,997.09
2018-08-25T04:38:56.714Z,997.09
2018-08-25T04:39:56.711Z,997.08
2018-08-25T04:40:56.716Z,997.06
2018-08-25T04:41:56.708Z,997.04
2018-08-25T04:42:56.703Z,997.11
2018-08-25T04:43:56.701Z,997.13
2018-08-25T04:44:56.701Z,997.10
2018-08-25T04:45:56.697Z,997.09
2018-08-25T04:46:56.695Z,997.13
2018-08-25T04:47:56.692Z,997.10
2018-08-25T04:48:56.690Z,997.10
2018-08-25T04:49:56.688Z,997.14
2018-08-25T04:50:56.685Z,997.09
2018-08-25T04:51:56.683Z,997.04
2018-08-25T04:52:56.680Z,997.07
2018-08-25T04:53:56.679Z,997.08
2018-08-25T04:54:56.675Z,997.06
2018-08-25T04:55:56.672Z,997.05
2018-08-25T04:56:56.671Z,997.10
2018-08-25T04:57:56.668Z,997.11
2018-08-25T04:58:56.666Z,997.14
2018-08-25T04:59:56.664Z,997.12
2018-08-25T05:00:56.661Z,997.10
2018-08-25T05:01:56.704Z,997.08
2018-08-25T05:02:56.657Z,997.07
2018-08-25T05:03:56.654Z,997.06
2018-08-25T05:04:56.652Z,997.02
2018-08-25T05:05:56.651Z,996.99
2018-08-25T05:06:56.647Z,997.02
2018-08-25T05:07:56.644Z,997.04
2018-08-25T05:08:56.642Z,997.15
2018-08-25T05:09:56.641Z,997.11
2018-08-25T05:10:56.640Z,997.16
2018-08-25T05:11:56.636Z,997.16
2018-08-25T05:12:56.633Z,997.21
2018-08-25T05:13:56.632Z,997.10
2018-08-25T05:14:56.629Z,997.15
2018-08-25T05:15:56.626Z,997.11
2018-08-25T05:16:56.630Z,997.14
2018-08-25T05:17:56.622Z,997.17
2018-08-25T05:18:56.619Z,997.15
2018-08-25T05:19:56.617Z,997.16
2018-08-25T05:20:56.614Z,997.19
2018-08-25T05:21:56.702Z,997.17
2018-08-25T05:22:56.610Z,997.15
2018-08-25T05:23:56.606Z,997.16
2018-08-25T05:24:56.607Z,997.12
2018-08-25T05:25:56.602Z,997.15
2018-08-25T05:26:56.600Z,997.13
2018-08-25T05:27:56.597Z,997.13
2018-08-25T05:28:56.595Z,997.11
2018-08-25T05:29:56.595Z,997.12
2018-08-25T05:30:56.595Z,997.14
2018-08-25T05:31:56.590Z,997.17
2018-08-25T05:32:56.584Z,997.17
2018-08-25T05:33:56.583Z,997.11
2018-08-25T05:34:56.579Z,997.11
2018-08-25T05:35:56.577Z,997.10
2018-08-25T05:36:56.574Z,997.11
2018-08-25T05:37:56.573Z,997.13
2018-08-25T05:38:56.570Z,997.14
2018-08-25T05:39:56.567Z,997.09
2018-08-25T05:40:56.563Z,997.08
2018-08-25T05:41:56.562Z,997.13
2018-08-25T05:42:56.560Z,997.14
2018-08-25T05:43:56.558Z,997.15
2018-08-25T05:44:56.554Z,997.17
2018-08-25T05:45:56.558Z,997.13
2018-08-25T05:46:56.551Z,997.15
2018-08-25T05:47:56.547Z,997.21
2018-08-25T05:48:56.546Z,997.14
2018-08-25T05:49:56.543Z,997.20
2018-08-25T05:50:56.539Z,997.23
2018-08-25T05:51:56.536Z,997.26
2018-08-25T05:52:56.564Z,997.24
2018-08-25T05:53:56.533Z,997.25
2018-08-25T05:54:56.528Z,997.24
2018-08-25T05:55:56.526Z,997.22
2018-08-25T05:56:56.524Z,997.27
2018-08-25T05:57:56.522Z,997.26
2018-08-25T05:58:56.518Z,997.26
2018-08-25T05:59:56.519Z,997.32
2018-08-25T06:00:56.513Z,997.28
2018-08-25T06:01:56.511Z,997.35
2018-08-25T06:02:56.509Z,997.35
2018-08-25T06:03:56.506Z,997.39
2018-08-25T06:04:56.503Z,997.45
2018-08-25T06:05:56.502Z,997.46
2018-08-25T06:06:56.498Z,997.41
2018-08-25T06:07:56.496Z,997.43
2018-08-25T06:08:56.492Z,997.39
2018-08-25T06:09:56.492Z,997.36
2018-08-25T06:10:56.487Z,997.40
2018-08-25T06:11:56.489Z,997.42
2018-08-25T06:12:56.483Z,997.41
2018-08-25T06:13:56.482Z,997.49
2018-08-25T06:14:56.478Z,997.50
2018-08-25T06:15:56.477Z,997.48
2018-08-25T06:16:56.473Z,997.54
2018-08-25T06:17:56.471Z,997.55
2018-08-25T06:18:56.469Z,997.54
2018-08-25T06:19:56.466Z,997.58
2018-08-25T06:20:56.464Z,997.60
2018-08-25T06:21:56.462Z,997.59
2018-08-25T06:22:56.461Z,997.56
2018-08-25T06:23:56.458Z,997.64
2018-08-25T06:24:56.455Z,997.54
2018-08-25T06:25:56.454Z,997.64
2018-08-25T06:26:56.451Z,997.62
2018-08-25T06:27:56.451Z,997.67
2018-08-25T06:28:56.446Z,997.68
2018-08-25T06:29:56.500Z,997.64
2018-08-25T06:30:56.446Z,997.73
2018-08-25T06:31:56.439Z,997.73
2018-08-25T06:32:56.438Z,997.73
2018-08-25T06:33:56.436Z,997.75
2018-08-25T06:34:56.432Z,997.72
2018-08-25T06:35:56.437Z,997.71
2018-08-25T06:36:56.428Z,997.70
2018-08-25T06:37:56.444Z,997.70
2018-08-25T06:38:56.424Z,997.75
2018-08-25T06:39:56.422Z,997.73
2018-08-25T06:40:56.419Z,997.95
2018-08-25T06:41:56.426Z,997.78
2018-08-25T06:42:56.416Z,997.85
2018-08-25T06:43:56.413Z,997.89
2018-08-25T06:44:56.411Z,997.81
2018-08-25T06:45:56.410Z,997.86
2018-08-25T06:46:56.406Z,997.83
2018-08-25T06:47:56.405Z,997.83
2018-08-25T06:48:56.404Z,997.81
2018-08-25T06:49:56.401Z,997.87
2018-08-25T06:50:56.398Z,997.87
2018-08-25T06:51:56.396Z,998.01
2018-08-25T06:52:56.393Z,997.95
2018-08-25T06:53:56.392Z,997.90
2018-08-25T06:54:56.388Z,997.94
2018-08-25T06:55:56.386Z,997.88
2018-08-25T06:56:56.384Z,998.02
2018-08-25T06:57:56.384Z,997.99
2018-08-25T06:58:56.381Z,997.94
2018-08-25T06:59:56.380Z,997.94
2018-08-25T07:00:56.378Z,998.02
2018-08-25T07:01:56.377Z,997.94
2018-08-25T07:02:56.373Z,997.97
2018-08-25T07:03:56.372Z,998.06
2018-08-25T07:04:56.369Z,997.97
2018-08-25T07:05:56.429Z,997.92
2018-08-25T07:06:56.366Z,997.97
2018-08-25T07:07:56.364Z,997.96
2018-08-25T07:08:56.362Z,997.98
2018-08-25T07:09:56.362Z,998.01
2018-08-25T07:10:56.358Z,997.99
2018-08-25T07:11:56.355Z,998.00
2018-08-25T07:12:56.362Z,997.97
2018-08-25T07:13:56.354Z,998.02
2018-08-25T07:14:56.352Z,997.96
2018-08-25T07:15:56.349Z,998.00
2018-08-25T07:16:56.350Z,997.97
2018-08-25T07:17:56.348Z,998.03
2018-08-25T07:18:56.399Z,997.98
2018-08-25T07:19:56.343Z,998.00
2018-08-25T07:20:56.344Z,998.01
2018-08-25T07:21:56.341Z,998.08
2018-08-25T07:22:56.338Z,998.10
2018-08-25T07:23:56.337Z,998.06
2018-08-25T07:24:56.336Z,997.98
2018-08-25T07:25:56.376Z,997.99
2018-08-25T07:26:56.335Z,997.99
2018-08-25T07:27:56.333Z,998.00
2018-08-25T07:28:56.332Z,997.99
2018-08-25T07:29:56.330Z,997.98
2018-08-25T07:30:56.329Z,997.99
2018-08-25T07:31:56.383Z,997.92
2018-08-25T07:32:56.327Z,997.96
2018-08-25T07:33:56.329Z,998.01
2018-08-25T07:34:56.324Z,998.04
2018-08-25T07:35:56.323Z,998.03
2018-08-25T07:36:56.323Z,998.06
2018-08-25T07:37:56.321Z,998.10
2018-08-25T07:38:56.319Z,998.12
2018-08-25T07:39:56.319Z,998.21
2018-08-25T07:40:56.318Z,998.16
2018-08-25T07:41:56.319Z,998.18
2018-08-25T07:42:56.315Z,998.24
2018-08-25T07:43:56.313Z,998.33
2018-08-25T07:44:56.312Z,998.21
2018-08-25T07:45:56.309Z,998.19
2018-08-25T07:46:56.307Z,998.22
2018-08-25T07:47:56.306Z,998.21
2018-08-25T07:48:56.310Z,998.24
2018-08-25T07:49:56.303Z,998.26
2018-08-25T07:50:56.304Z,998.27
2018-08-25T07:51:56.324Z,998.23
2018-08-25T07:52:56.300Z,998.27
2018-08-25T07:53:56.295Z,998.31
2018-08-25T07:54:56.293Z,998.38
2018-08-25T07:55:56.291Z,998.37
2018-08-25T07:56:56.288Z,998.41
2018-08-25T07:57:56.288Z,998.46
2018-08-25T07:58:56.285Z,998.55
2018-08-25T07:59:56.281Z,998.50
2018-08-25T08:00:56.281Z,998.52
2018-08-25T08:01:56.279Z,998.49
2018-08-25T08:02:56.276Z,998.54
2018-08-25T08:03:56.281Z,998.49
2018-08-25T08:04:56.273Z,998.53
2018-08-25T08:05:56.271Z,998.48
2018-08-25T08:06:56.270Z,998.48
2018-08-25T08:07:56.268Z,998.53
2018-08-25T08:08:56.268Z,998.55
2018-08-25T08:09:56.268Z,998.49
2018-08-25T08:10:56.265Z,998.52
2018-08-25T08:11:56.396Z,998.61
2018-08-25T08:12:56.262Z,998.58
2018-08-25T08:13:56.261Z,998.62
2018-08-25T08:14:56.259Z,998.54
2018-08-25T08:15:56.258Z,998.56
2018-08-25T08:16:56.260Z,998.56
2018-08-25T08:17:56.258Z,998.52
2018-08-25T08:18:56.258Z,998.46
2018-08-25T08:19:56.257Z,998.44
2018-08-25T08:20:56.255Z,998.54
2018-08-25T08:21:58.877Z,998.55
2018-08-25T08:22:56.457Z,998.61
2018-08-25T08:23:56.254Z,998.58
2018-08-25T08:24:56.257Z,998.64
2018-08-25T08:25:56.252Z,998.66
2018-08-25T08:26:56.257Z,998.65
2018-08-25T08:27:56.251Z,998.66
2018-08-25T08:28:56.251Z,998.71
2018-08-25T08:29:56.250Z,998.71
2018-08-25T08:30:56.249Z,998.79
2018-08-25T08:31:56.250Z,998.75
2018-08-25T08:32:56.327Z,998.77
2018-08-25T08:33:56.246Z,998.81
2018-08-25T08:34:56.248Z,998.87
2018-08-25T08:35:56.242Z,998.84
2018-08-25T08:36:56.243Z,998.84
2018-08-25T08:37:56.242Z,998.98
2018-08-25T08:38:56.240Z,998.94
2018-08-25T08:39:56.239Z,999.00
2018-08-25T08:40:56.240Z,999.02
2018-08-25T08:41:56.239Z,999.01
2018-08-25T08:42:56.237Z,999.04
2018-08-25T08:43:56.235Z,999.07
2018-08-25T08:44:56.235Z,999.03
2018-08-25T08:45:56.234Z,999.12
2018-08-25T08:46:56.233Z,999.06
2018-08-25T08:47:56.232Z,999.06
2018-08-25T08:48:56.231Z,999.07
2018-08-25T08:49:56.242Z,999.08
2018-08-25T08:50:56.228Z,999.17
2018-08-25T08:51:56.229Z,999.16
2018-08-25T08:52:56.227Z,999.23
2018-08-25T08:53:56.224Z,999.19
2018-08-25T08:54:56.223Z,999.17
2018-08-25T08:55:56.222Z,999.15
2018-08-25T08:56:56.221Z,999.21
2018-08-25T08:57:56.220Z,999.17
2018-08-25T08:58:56.218Z,999.26
2018-08-25T08:59:56.217Z,999.28
2018-08-25T09:00:56.216Z,999.25
2018-08-25T09:01:56.217Z,999.27
2018-08-25T09:02:56.212Z,999.32
2018-08-25T09:03:56.211Z,999.33
2018-08-25T09:04:56.209Z,999.45
2018-08-25T09:05:56.207Z,999.54
2018-08-25T09:06:56.205Z,1000.05
2018-08-25T09:07:56.209Z,999.85
2018-08-25T09:08:56.203Z,999.91
2018-08-25T09:09:56.202Z,999.64
2018-08-25T09:10:56.201Z,999.92
2018-08-25T09:11:56.221Z,999.80
2018-08-25T09:12:56.202Z,1000.19
2018-08-25T09:13:56.200Z,1000.20
2018-08-25T09:14:56.199Z,1000.22
2018-08-25T09:15:56.202Z,1000.32
2018-08-25T09:16:56.203Z,1000.28
2018-08-25T09:17:56.205Z,1000.02
2018-08-25T09:18:56.205Z,1000.42
2018-08-25T09:19:56.208Z,999.79
2018-08-25T09:20:56.215Z,1000.32
2018-08-25T09:21:56.214Z,999.79
2018-08-25T09:22:56.217Z,999.64
2018-08-25T09:23:56.220Z,999.57
2018-08-25T09:24:56.225Z,999.53
2018-08-25T09:25:56.228Z,999.56
2018-08-25T09:26:56.234Z,999.64
2018-08-25T09:27:56.236Z,999.63
2018-08-25T09:28:56.239Z,999.65
2018-08-25T09:29:56.244Z,999.72
2018-08-25T09:30:56.246Z,999.80
2018-08-25T09:31:56.252Z,999.83
2018-08-25T09:32:56.253Z,1000.03
2018-08-25T09:33:56.255Z,999.89
2018-08-25T09:34:56.258Z,999.75
2018-08-25T09:35:56.291Z,999.82
2018-08-25T09:36:56.330Z,1000.45
2018-08-25T09:37:56.268Z,999.89
2018-08-25T09:38:56.271Z,999.92
2018-08-25T09:39:56.275Z,1000.07
2018-08-25T09:40:56.277Z,1000.58
2018-08-25T09:41:56.281Z,1000.58
2018-08-25T09:42:56.283Z,1000.54
2018-08-25T09:43:56.287Z,1000.53
2018-08-25T09:44:56.291Z,1000.58
2018-08-25T09:45:56.298Z,1000.09
2018-08-25T09:46:56.328Z,1000.62
2018-08-25T09:47:56.303Z,1000.56
2018-08-25T09:48:56.307Z,1000.22
2018-08-25T09:49:56.312Z,1000.57
2018-08-25T09:50:56.316Z,999.87
2018-08-25T09:51:56.323Z,999.83
2018-08-25T09:52:56.327Z,999.84
2018-08-25T09:53:56.332Z,1000.25
2018-08-25T09:54:56.336Z,999.88
2018-08-25T09:55:56.341Z,999.89
2018-08-25T09:56:56.346Z,1000.06
2018-08-25T09:57:56.351Z,999.99
2018-08-25T09:58:56.408Z,1000.79
2018-08-25T09:59:56.364Z,1000.86
2018-08-25T10:00:56.366Z,1000.86
2018-08-25T10:01:56.371Z,1000.79
2018-08-25T10:02:56.373Z,1000.76
2018-08-25T10:03:56.378Z,1000.09
2018-08-25T10:04:56.386Z,1000.78
2018-08-25T10:05:56.388Z,1000.80
2018-08-25T10:06:56.393Z,1000.86
2018-08-25T10:07:56.398Z,1001.00
2018-08-25T10:08:56.403Z,1000.44
2018-08-25T10:09:56.409Z,1000.27
2018-08-25T10:10:56.426Z,1000.16
2018-08-25T10:11:56.421Z,1000.96
2018-08-25T10:12:56.425Z,1000.67
2018-08-25T10:13:56.431Z,1000.07
2018-08-25T10:14:56.436Z,1000.98
2018-08-25T10:15:56.442Z,1000.94
2018-08-25T10:16:56.475Z,1000.94
2018-08-25T10:17:56.453Z,1000.91
2018-08-25T10:18:56.458Z,1000.97
2018-08-25T10:19:56.464Z,1000.95
2018-08-25T10:20:56.469Z,1000.88
2018-08-25T10:21:56.476Z,1001.00
2018-08-25T10:22:56.535Z,1000.94
2018-08-25T10:23:56.487Z,1000.30
2018-08-25T10:24:56.494Z,1000.24
2018-08-25T10:25:56.500Z,1000.28
2018-08-25T10:26:56.510Z,1000.55
2018-08-25T10:27:56.512Z,1000.99
2018-08-25T10:28:56.538Z,1000.43
2018-08-25T10:29:56.528Z,1000.98
2018-08-25T10:30:56.533Z,1000.69
2018-08-25T10:31:56.542Z,1000.39
2018-08-25T10:32:56.547Z,1000.91
2018-08-25T10:33:56.556Z,1000.42
2018-08-25T10:34:56.557Z,1000.23
2018-08-25T10:35:56.565Z,1000.20
2018-08-25T10:36:56.570Z,1000.19
2018-08-25T10:37:56.578Z,1000.44
2018-08-25T10:38:56.583Z,1000.25
2018-08-25T10:39:56.590Z,1000.31
2018-08-25T10:40:56.595Z,1000.26
2018-08-25T10:41:56.678Z,1000.32
2018-08-25T10:42:56.607Z,1000.13
2018-08-25T10:43:56.613Z,1000.14
2018-08-25T10:44:56.617Z,1000.33
2018-08-25T10:45:56.623Z,1000.33
2018-08-25T10:46:56.627Z,1000.16
2018-08-25T10:47:56.689Z,1000.14
2018-08-25T10:48:56.638Z,1000.37
2018-08-25T10:49:56.643Z,1000.17
2018-08-25T10:50:56.651Z,1000.31
2018-08-25T10:51:56.651Z,1000.25
2018-08-25T10:52:56.656Z,1000.27
2018-08-25T10:53:56.679Z,1000.16
2018-08-25T10:54:56.662Z,1000.23
2018-08-25T10:55:56.668Z,1000.23
2018-08-25T10:56:56.675Z,1000.26
2018-08-25T10:57:56.675Z,1000.42
2018-08-25T10:58:56.679Z,1000.34
2018-08-25T10:59:56.684Z,1000.28
2018-08-25T11:00:56.770Z,1000.24
2018-08-25T11:01:56.694Z,1000.12
2018-08-25T11:02:56.696Z,1000.12
2018-08-25T11:03:56.700Z,1000.15
2018-08-25T11:04:56.703Z,1000.17
2018-08-25T11:05:56.707Z,1000.21
2018-08-25T11:06:56.710Z,1000.19
2018-08-25T11:07:56.715Z,1000.09
2018-08-25T11:08:56.755Z,1000.14
2018-08-25T11:09:56.728Z,1000.17
2018-08-25T11:10:56.725Z,1000.13
2018-08-25T11:11:56.729Z,1000.15
2018-08-25T11:12:56.734Z,1000.15
2018-08-25T11:13:56.738Z,1000.26
2018-08-25T11:14:56.739Z,1000.10
2018-08-25T11:15:56.744Z,1000.11
2018-08-25T11:16:56.747Z,1000.05
2018-08-25T11:17:56.751Z,1000.00
2018-08-25T11:18:56.754Z,1000.02
2018-08-25T11:19:56.756Z,1000.08
2018-08-25T11:20:56.763Z,1000.09
2018-08-25T11:21:56.763Z,1000.04
2018-08-25T11:22:56.767Z,1000.17
2018-08-25T11:23:56.768Z,1000.10
2018-08-25T11:24:56.773Z,1000.08
2018-08-25T11:25:56.774Z,1000.09
2018-08-25T11:26:56.786Z,1000.05
2018-08-25T11:27:56.779Z,1000.13
2018-08-25T11:28:56.782Z,1000.11
2018-08-25T11:29:56.786Z,1000.14
2018-08-25T11:30:56.787Z,1000.10
2018-08-25T11:31:56.792Z,1000.09
2018-08-25T11:32:56.794Z,1000.12
2018-08-25T11:33:56.797Z,1000.11
2018-08-25T11:34:56.802Z,1000.08
2018-08-25T11:35:56.801Z,1000.07
2018-08-25T11:36:56.805Z,999.97
2018-08-25T11:37:56.833Z,1000.17
2018-08-25T11:38:56.810Z,1000.13
2018-08-25T11:39:56.813Z,1000.09
2018-08-25T11:40:56.820Z,1000.11
2018-08-25T11:41:56.818Z,1000.19
2018-08-25T11:42:56.821Z,1000.18
2018-08-25T11:43:56.877Z,1000.21
2018-08-25T11:44:56.825Z,1000.25
2018-08-25T11:45:56.830Z,1000.24
2018-08-25T11:46:56.834Z,1000.34
2018-08-25T11:47:56.835Z,1000.25
2018-08-25T11:48:56.838Z,1000.22
2018-08-25T11:49:56.840Z,1000.23
2018-08-25T11:50:56.842Z,1000.34
2018-08-25T11:51:56.845Z,1000.30
2018-08-25T11:52:56.846Z,1000.21
2018-08-25T11:53:56.878Z,1000.16
2018-08-25T11:54:56.854Z,1000.06
2018-08-25T11:55:56.860Z,1000.06
2018-08-25T11:56:56.859Z,1000.04
2018-08-25T11:57:56.862Z,1000.13
2018-08-25T11:58:56.865Z,1000.20
2018-08-25T11:59:56.870Z,1000.22
2018-08-25T12:00:56.871Z,1000.22
2018-08-25T12:01:56.872Z,1000.21
2018-08-25T12:02:56.877Z,1000.24
2018-08-25T12:03:56.878Z,1000.33
2018-08-25T12:04:56.881Z,1000.20
2018-08-25T12:05:56.884Z,1000.16
2018-08-25T12:06:56.884Z,1000.10
2018-08-25T12:07:56.889Z,1000.10
2018-08-25T12:08:56.891Z,1000.14
2018-08-25T12:09:56.895Z,1000.05
2018-08-25T12:10:56.897Z,1000.09
2018-08-25T12:11:56.902Z,1000.19
2018-08-25T12:12:56.903Z,1000.21
2018-08-25T12:13:56.906Z,1000.20
2018-08-25T12:14:56.908Z,1000.16
2018-08-25T12:15:56.909Z,1000.23
2018-08-25T12:16:56.912Z,1000.20
2018-08-25T12:17:56.917Z,1000.16
2018-08-25T12:18:56.919Z,1000.28
2018-08-25T12:19:56.920Z,1000.19
2018-08-25T12:20:56.927Z,1000.15
2018-08-25T12:21:56.927Z,1000.14
2018-08-25T12:22:56.933Z,1000.15
2018-08-25T12:23:56.992Z,1000.11